createdAt,value
2019-03-17T00:01:57.601Z,7.73
2019-03-17T00:04:31.442Z,6.50
2019-03-17T00:06:52.748Z,9.07
2019-03-17T00:09:19.324Z,10.80
2019-03-17T00:11:46.530Z,10.33
2019-03-17T00:14:13.155Z,7.43
2019-03-17T00:16:42.294Z,5.50
2019-03-17T00:19:08.838Z,8.37
2019-03-17T00:21:35.729Z,9.43
2019-03-17T00:24:03.547Z,9.43
2019-03-17T00:26:30.588Z,6.63
2019-03-17T00:28:57.108Z,6.93
2019-03-17T00:31:24.464Z,8.07
2019-03-17T00:33:52.303Z,5.63
2019-03-17T00:36:18.830Z,5.77
2019-03-17T00:38:45.332Z,8.00
2019-03-17T00:41:12.273Z,3.60
2019-03-17T00:43:39.495Z,7.07
2019-03-17T00:46:06.492Z,8.10
2019-03-17T00:48:34.274Z,6.50
2019-03-17T00:51:01.100Z,5.67
2019-03-17T00:53:28.005Z,8.00
2019-03-17T00:55:54.593Z,7.60
2019-03-17T00:58:21.053Z,6.70
2019-03-17T01:00:47.984Z,4.10
2019-03-17T01:03:14.772Z,7.07
2019-03-17T01:05:41.832Z,5.00
2019-03-17T01:08:08.975Z,5.10
2019-03-17T01:10:35.594Z,6.10
2019-03-17T01:13:02.318Z,6.67
2019-03-17T01:15:29.223Z,9.00
2019-03-17T01:17:55.959Z,7.77
2019-03-17T01:20:22.877Z,14.63
2019-03-17T01:22:49.615Z,9.57
2019-03-17T01:25:16.334Z,8.33
2019-03-17T01:27:43.813Z,16.47
2019-03-17T01:30:11.906Z,7.47
2019-03-17T01:32:38.913Z,6.47
2019-03-17T01:35:09.519Z,6.50
2019-03-17T01:37:35.242Z,4.13
2019-03-17T01:40:04.040Z,5.40
2019-03-17T01:42:30.580Z,6.07
2019-03-17T01:44:57.224Z,10.67
2019-03-17T01:47:23.838Z,10.17
2019-03-17T01:49:50.388Z,7.93
2019-03-17T01:52:17.131Z,5.87
2019-03-17T01:54:43.961Z,6.07
2019-03-17T01:57:10.768Z,4.83
2019-03-17T01:59:37.431Z,7.57
2019-03-17T02:02:04.082Z,4.07
2019-03-17T02:04:30.828Z,4.03
2019-03-17T02:07:00.515Z,5.03
2019-03-17T02:09:27.359Z,4.00
2019-03-17T02:11:54.099Z,6.30
2019-03-17T02:14:22.033Z,7.70
2019-03-17T02:16:48.545Z,11.80
2019-03-17T02:19:15.327Z,4.83
2019-03-17T02:21:42.269Z,11.90
2019-03-17T02:24:08.870Z,3.13
2019-03-17T02:26:35.463Z,7.20
2019-03-17T02:29:02.264Z,9.50
2019-03-17T02:31:29.044Z,10.13
2019-03-17T02:33:55.891Z,8.00
2019-03-17T02:36:22.557Z,8.77
2019-03-17T02:38:49.161Z,10.83
2019-03-17T02:41:16.862Z,5.50
2019-03-17T02:43:43.652Z,4.80
2019-03-17T02:46:10.225Z,8.40
2019-03-17T02:48:36.947Z,12.60
2019-03-17T02:51:04.463Z,6.83
2019-03-17T02:53:32.210Z,5.63
2019-03-17T02:55:59.580Z,9.50
2019-03-17T02:58:27.150Z,5.83
2019-03-17T03:00:53.856Z,7.57
2019-03-17T03:03:21.055Z,8.60
2019-03-17T03:05:54.912Z,11.20
2019-03-17T03:08:17.994Z,10.67
2019-03-17T03:10:44.566Z,6.87
2019-03-17T03:13:11.214Z,6.53
2019-03-17T03:15:40.566Z,9.53
2019-03-17T03:18:07.505Z,6.83
2019-03-17T03:20:34.588Z,8.20
2019-03-17T03:23:01.333Z,10.90
2019-03-17T03:25:27.872Z,10.63
2019-03-17T03:27:55.152Z,3.93
2019-03-17T03:30:22.043Z,7.40
2019-03-17T03:32:48.773Z,4.97
2019-03-17T03:35:15.361Z,9.10
2019-03-17T03:37:41.931Z,6.17
2019-03-17T03:40:10.116Z,6.80
2019-03-17T03:42:36.695Z,5.83
2019-03-17T03:45:08.645Z,5.73
2019-03-17T03:47:35.401Z,12.60
2019-03-17T03:50:02.513Z,16.33
2019-03-17T03:52:29.995Z,10.97
2019-03-17T03:54:57.450Z,14.20
2019-03-17T03:57:24.837Z,10.33
2019-03-17T03:59:51.307Z,14.83
2019-03-17T04:02:18.209Z,10.13
2019-03-17T04:04:45.155Z,10.77
2019-03-17T04:07:11.599Z,9.60
2019-03-17T04:09:39.958Z,8.10
2019-03-17T04:12:06.527Z,8.20
2019-03-17T04:14:32.985Z,9.33
2019-03-17T04:16:59.416Z,7.07
2019-03-17T04:19:26.139Z,8.33
2019-03-17T04:21:53.624Z,8.70
2019-03-17T04:24:20.356Z,6.93
2019-03-17T04:26:46.812Z,8.80
2019-03-17T04:29:14.297Z,9.47
2019-03-17T04:31:41.026Z,11.27
2019-03-17T04:34:07.884Z,9.10
2019-03-17T04:36:40.217Z,6.90
2019-03-17T04:39:04.591Z,7.23
2019-03-17T04:41:31.067Z,8.60
2019-03-17T04:43:57.952Z,6.73
2019-03-17T04:46:24.660Z,10.60
2019-03-17T04:48:52.116Z,9.50
2019-03-17T04:51:18.595Z,9.50
2019-03-17T04:53:45.344Z,11.20
2019-03-17T04:56:12.171Z,10.73
2019-03-17T04:58:39.487Z,7.50
2019-03-17T05:01:06.098Z,9.87
2019-03-17T05:03:33.016Z,4.70
2019-03-17T05:06:00.436Z,10.07
2019-03-17T05:08:27.797Z,9.03
2019-03-17T05:10:54.356Z,11.17
2019-03-17T05:13:21.400Z,11.57
2019-03-17T05:15:49.023Z,6.47
2019-03-17T05:18:15.987Z,9.47
2019-03-17T05:20:42.793Z,14.17
2019-03-17T05:23:11.012Z,6.40
2019-03-17T05:25:37.462Z,10.63
2019-03-17T05:28:03.933Z,10.10
2019-03-17T05:30:30.483Z,4.70
2019-03-17T05:32:57.042Z,7.37
2019-03-17T05:35:25.617Z,8.73
2019-03-17T05:37:52.359Z,15.23
2019-03-17T05:40:19.157Z,6.80
2019-03-17T05:42:45.894Z,5.10
2019-03-17T05:45:12.442Z,8.97
2019-03-17T05:47:38.915Z,8.70
2019-03-17T05:50:08.265Z,8.90
2019-03-17T05:52:34.845Z,8.90
2019-03-17T05:55:01.284Z,7.53
2019-03-17T05:57:27.743Z,6.93
2019-03-17T05:59:54.764Z,6.07
2019-03-17T06:02:21.759Z,6.00
2019-03-17T06:04:48.422Z,6.45
2019-03-17T06:07:18.827Z,9.50
2019-03-17T06:09:44.720Z,7.93
2019-03-17T06:12:11.690Z,10.60
2019-03-17T06:14:38.326Z,10.05
2019-03-17T06:17:06.091Z,8.50
2019-03-17T06:19:33.126Z,8.25
2019-03-17T06:22:00.665Z,6.97
2019-03-17T06:24:27.626Z,7.50
2019-03-17T06:26:54.679Z,5.83
2019-03-17T06:29:21.498Z,11.00
2019-03-17T06:31:48.154Z,7.80
2019-03-17T06:34:14.792Z,6.78
2019-03-17T06:36:42.387Z,10.28
2019-03-17T06:39:09.203Z,18.77
2019-03-17T06:41:38.013Z,12.40
2019-03-17T06:44:05.733Z,10.87
2019-03-17T06:46:32.906Z,15.00
2019-03-17T06:49:00.043Z,11.07
2019-03-17T06:51:28.942Z,11.50
2019-03-17T06:53:56.846Z,7.87
2019-03-17T06:56:25.154Z,9.53
2019-03-17T06:58:51.922Z,12.27
2019-03-17T07:01:18.532Z,8.43
2019-03-17T07:03:46.813Z,9.07
2019-03-17T07:06:13.866Z,5.47
2019-03-17T07:08:41.306Z,7.85
2019-03-17T07:11:10.895Z,7.50
2019-03-17T07:13:37.047Z,6.57
2019-03-17T07:16:05.212Z,10.45
2019-03-17T07:18:33.486Z,8.63
2019-03-17T07:21:01.386Z,10.10
2019-03-17T07:23:28.621Z,12.80
2019-03-17T07:25:56.766Z,10.88
2019-03-17T07:28:23.821Z,8.25
2019-03-17T07:30:50.916Z,9.60
2019-03-17T07:33:18.519Z,8.95
2019-03-17T07:35:46.481Z,9.68
2019-03-17T07:38:14.655Z,9.95
2019-03-17T07:40:41.208Z,13.40
2019-03-17T07:43:08.851Z,6.10
2019-03-17T07:45:35.303Z,10.03
2019-03-17T07:48:02.264Z,11.33
2019-03-17T07:50:28.805Z,7.12
2019-03-17T07:52:56.314Z,9.98
2019-03-17T07:55:23.858Z,8.50
2019-03-17T07:57:50.340Z,9.25
2019-03-17T08:00:17.322Z,8.78
2019-03-17T08:02:43.837Z,9.30
2019-03-17T08:05:11.322Z,6.92
2019-03-17T08:07:38.142Z,6.50
2019-03-17T08:10:14.037Z,8.88
2019-03-17T08:12:41.570Z,8.23
2019-03-17T08:15:15.280Z,3.77
2019-03-17T08:17:42.198Z,6.85
2019-03-17T08:20:10.339Z,6.53
2019-03-17T08:22:37.045Z,11.48
2019-03-17T08:25:05.703Z,4.12
2019-03-17T08:27:32.308Z,6.55
2019-03-17T08:29:58.800Z,4.62
2019-03-17T08:32:25.366Z,5.72
2019-03-17T08:34:52.780Z,5.83
2019-03-17T08:37:19.607Z,9.73
2019-03-17T08:39:47.041Z,6.62
2019-03-17T08:42:15.243Z,6.97
2019-03-17T08:44:41.687Z,8.43
2019-03-17T08:47:08.264Z,7.05
2019-03-17T08:49:34.890Z,4.50
2019-03-17T08:52:02.597Z,7.67
2019-03-17T08:54:29.749Z,10.08
2019-03-17T08:56:57.391Z,6.65
2019-03-17T08:59:25.269Z,8.63
2019-03-17T09:01:52.684Z,6.33
2019-03-17T09:04:19.571Z,5.90
2019-03-17T09:06:46.686Z,5.05
2019-03-17T09:09:14.784Z,4.35
2019-03-17T09:11:43.297Z,3.52
2019-03-17T09:14:11.650Z,4.15
2019-03-17T09:16:38.666Z,4.37
2019-03-17T09:19:05.727Z,4.62
2019-03-17T09:21:32.477Z,4.70
2019-03-17T09:23:59.715Z,6.87
2019-03-17T09:26:27.379Z,5.78
2019-03-17T09:28:54.898Z,4.62
2019-03-17T09:31:22.396Z,7.05
2019-03-17T09:33:49.852Z,3.72
2019-03-17T09:36:17.196Z,4.60
2019-03-17T09:38:47.593Z,4.25
2019-03-17T09:41:13.235Z,3.67
2019-03-17T09:43:40.797Z,3.05
2019-03-17T09:46:07.672Z,7.12
2019-03-17T09:48:34.370Z,4.97
2019-03-17T09:51:01.671Z,4.08
2019-03-17T09:53:28.717Z,3.77
2019-03-17T09:55:55.501Z,3.47
2019-03-17T09:58:22.674Z,7.95
2019-03-17T10:00:49.801Z,3.20
2019-03-17T10:03:16.541Z,5.70
2019-03-17T10:05:43.640Z,5.47
2019-03-17T10:08:12.494Z,5.65
2019-03-17T10:10:39.416Z,2.62
2019-03-17T10:13:06.187Z,7.12
2019-03-17T10:15:33.366Z,7.33
2019-03-17T10:18:00.167Z,4.55
2019-03-17T10:20:26.994Z,4.10
2019-03-17T10:22:53.825Z,3.25
2019-03-17T10:25:20.572Z,2.67
2019-03-17T10:27:47.297Z,5.35
2019-03-17T10:30:15.289Z,5.62
2019-03-17T10:32:42.156Z,2.33
2019-03-17T10:35:08.957Z,4.78
2019-03-17T10:37:35.587Z,2.25
2019-03-17T10:40:05.289Z,3.90
2019-03-17T10:42:34.233Z,3.98
2019-03-17T10:45:01.133Z,5.35
2019-03-17T10:47:27.955Z,7.17
2019-03-17T10:49:55.448Z,3.27
2019-03-17T10:52:22.507Z,2.95
2019-03-17T10:54:50.740Z,5.40
2019-03-17T10:57:17.560Z,4.58
2019-03-17T10:59:44.522Z,6.70
2019-03-17T11:02:11.598Z,5.62
2019-03-17T11:04:38.785Z,5.12
2019-03-17T11:07:05.781Z,4.03
2019-03-17T11:09:32.953Z,3.75
2019-03-17T11:12:00.574Z,2.35
2019-03-17T11:14:28.645Z,2.55
2019-03-17T11:16:58.477Z,3.08
2019-03-17T11:19:27.433Z,3.80
2019-03-17T11:21:55.097Z,2.20
2019-03-17T11:24:23.264Z,1.52
2019-03-17T11:26:51.617Z,2.35
2019-03-17T11:29:22.267Z,3.20
2019-03-17T11:31:50.375Z,2.52
2019-03-17T11:34:18.946Z,3.20
2019-03-17T11:36:46.486Z,3.50
2019-03-17T11:39:15.064Z,5.03
2019-03-17T11:41:42.590Z,3.72
2019-03-17T11:44:11.309Z,2.62
2019-03-17T11:46:40.048Z,2.67
2019-03-17T11:49:08.772Z,4.10
2019-03-17T11:51:35.928Z,2.90
2019-03-17T11:54:03.899Z,6.37
2019-03-17T11:56:31.044Z,4.08
2019-03-17T11:58:59.662Z,3.58
2019-03-17T12:01:26.384Z,3.27
2019-03-17T12:03:53.531Z,4.90
2019-03-17T12:06:20.578Z,8.65
2019-03-17T12:08:47.705Z,4.40
2019-03-17T12:11:14.854Z,6.15
2019-03-17T12:13:41.895Z,1.15
2019-03-17T12:16:08.959Z,3.15
2019-03-17T12:18:36.138Z,4.80
2019-03-17T12:21:03.249Z,1.42
2019-03-17T12:23:30.278Z,1.55
2019-03-17T12:25:57.334Z,3.40
2019-03-17T12:28:24.113Z,3.20
2019-03-17T12:30:51.012Z,2.58
2019-03-17T12:33:18.070Z,1.40
2019-03-17T12:35:45.311Z,4.20
2019-03-17T12:38:12.516Z,2.15
2019-03-17T12:40:39.500Z,2.17
2019-03-17T12:43:06.544Z,1.55
2019-03-17T12:45:34.131Z,5.28
2019-03-17T12:48:01.975Z,4.65
2019-03-17T12:50:29.490Z,1.55
2019-03-17T12:52:56.879Z,2.60
2019-03-17T12:55:24.025Z,1.47
2019-03-17T12:57:50.989Z,1.45
2019-03-17T13:00:25.415Z,1.37
2019-03-17T13:02:52.429Z,1.32
2019-03-17T13:05:19.031Z,1.30
2019-03-17T13:07:46.149Z,1.98
2019-03-17T13:10:16.578Z,2.17
2019-03-17T13:12:43.998Z,2.25
2019-03-17T13:15:11.447Z,2.95
2019-03-17T13:17:38.389Z,7.85
2019-03-17T13:20:12.806Z,2.40
2019-03-17T13:22:39.864Z,1.25
2019-03-17T13:25:08.113Z,1.37
2019-03-17T13:27:35.121Z,3.12
2019-03-17T13:30:03.181Z,1.02
2019-03-17T13:32:30.393Z,1.80
2019-03-17T13:34:59.412Z,1.90
2019-03-17T13:37:29.294Z,1.35
2019-03-17T13:39:56.506Z,2.27
2019-03-17T13:42:23.805Z,2.70
2019-03-17T13:44:50.741Z,1.90
2019-03-17T13:47:17.889Z,3.42
2019-03-17T13:49:44.876Z,1.27
2019-03-17T13:52:12.317Z,2.67
2019-03-17T13:54:40.663Z,0.98
2019-03-17T13:57:09.325Z,1.40
2019-03-17T13:59:38.393Z,1.17
2019-03-17T14:02:06.101Z,1.98
2019-03-17T14:04:43.086Z,2.52
2019-03-17T14:07:12.480Z,1.87
2019-03-17T14:09:40.784Z,3.08
2019-03-17T14:12:08.090Z,2.15
2019-03-17T14:14:35.352Z,2.95
2019-03-17T14:17:05.038Z,4.40
2019-03-17T14:19:34.285Z,3.45
2019-03-17T14:22:01.305Z,0.98
2019-03-17T14:24:28.889Z,2.15
2019-03-17T14:26:56.828Z,1.70
2019-03-17T14:29:23.466Z,3.25
2019-03-17T14:31:53.183Z,0.90
2019-03-17T14:34:21.643Z,2.67
2019-03-17T14:36:50.338Z,2.52
2019-03-17T14:39:18.108Z,2.08
2019-03-17T14:41:46.928Z,1.57
2019-03-17T14:44:15.056Z,5.85
2019-03-17T14:46:44.901Z,3.40
2019-03-17T14:49:15.063Z,4.08
2019-03-17T14:51:43.633Z,3.47
2019-03-17T14:54:13.148Z,2.77
2019-03-17T14:56:40.527Z,3.17
2019-03-17T14:59:12.318Z,2.75
2019-03-17T15:01:39.036Z,3.42
2019-03-17T15:04:06.607Z,3.55
2019-03-17T15:06:33.732Z,4.53
2019-03-17T15:09:01.195Z,3.67
2019-03-17T15:11:28.120Z,2.55
2019-03-17T15:13:55.382Z,5.33
2019-03-17T15:16:22.739Z,3.58
2019-03-17T15:18:49.465Z,3.35
2019-03-17T15:21:17.383Z,2.30
2019-03-17T15:23:44.125Z,1.55
2019-03-17T15:26:10.841Z,2.80
2019-03-17T15:28:37.495Z,2.05
2019-03-17T15:31:11.681Z,1.95
2019-03-17T15:33:34.016Z,2.47
2019-03-17T15:36:00.725Z,3.85
2019-03-17T15:38:27.165Z,2.77
2019-03-17T15:40:53.847Z,1.87
2019-03-17T15:43:20.550Z,2.27
2019-03-17T15:45:47.066Z,2.22
2019-03-17T15:48:13.655Z,2.60
2019-03-17T15:50:40.235Z,4.28
2019-03-17T15:53:06.741Z,2.22
2019-03-17T15:55:33.404Z,3.77
2019-03-17T15:57:59.894Z,3.00
2019-03-17T16:00:27.231Z,4.30
2019-03-17T16:02:54.194Z,2.17
2019-03-17T16:05:20.890Z,5.45
2019-03-17T16:07:47.602Z,1.37
2019-03-17T16:10:26.143Z,4.85
2019-03-17T16:12:52.862Z,3.77
2019-03-17T16:15:20.014Z,1.10
2019-03-17T16:17:46.911Z,2.72
2019-03-17T16:20:18.928Z,2.47
2019-03-17T16:22:45.789Z,3.15
2019-03-17T16:25:14.722Z,3.92
2019-03-17T16:27:41.697Z,5.70
2019-03-17T16:30:11.835Z,2.22
2019-03-17T16:32:39.509Z,4.45
2019-03-17T16:35:08.772Z,6.55
2019-03-17T16:37:35.614Z,3.52
2019-03-17T16:40:03.538Z,4.33
2019-03-17T16:42:32.360Z,4.33
2019-03-17T16:44:59.317Z,4.37
2019-03-17T16:47:26.181Z,3.85
2019-03-17T16:49:53.048Z,7.03
2019-03-17T16:52:19.591Z,3.67
2019-03-17T16:54:46.629Z,3.25
2019-03-17T16:57:13.220Z,5.30
2019-03-17T16:59:40.971Z,3.22
2019-03-17T17:02:11.099Z,5.10
2019-03-17T17:04:38.240Z,5.30
2019-03-17T17:07:04.994Z,2.22
2019-03-17T17:09:32.010Z,4.17
2019-03-17T17:11:58.772Z,4.00
2019-03-17T17:14:25.789Z,6.20
2019-03-17T17:16:52.272Z,4.92
2019-03-17T17:19:19.594Z,6.33
2019-03-17T17:21:46.518Z,2.72
2019-03-17T17:24:13.261Z,5.10
2019-03-17T17:26:39.720Z,7.72
2019-03-17T17:29:06.237Z,7.20
2019-03-17T17:31:32.996Z,3.87
2019-03-17T17:33:59.807Z,5.83
2019-03-17T17:36:26.730Z,3.95
2019-03-17T17:38:53.686Z,8.75
2019-03-17T17:41:20.738Z,2.83
2019-03-17T17:43:47.979Z,6.17
2019-03-17T17:46:14.835Z,10.05
2019-03-17T17:48:43.227Z,7.95
2019-03-17T17:51:10.040Z,5.20
2019-03-17T17:53:37.202Z,5.08
2019-03-17T17:56:04.445Z,5.72
2019-03-17T17:58:31.696Z,4.58
2019-03-17T18:00:59.007Z,7.72
2019-03-17T18:03:26.312Z,2.65
2019-03-17T18:05:53.749Z,6.87
2019-03-17T18:08:20.893Z,2.80
2019-03-17T18:10:48.039Z,6.87
2019-03-17T18:13:15.023Z,5.10
2019-03-17T18:15:42.050Z,6.58
2019-03-17T18:18:08.999Z,5.35
2019-03-17T18:20:36.557Z,6.90
2019-03-17T18:23:16.986Z,5.10
2019-03-17T18:25:33.659Z,3.87
2019-03-17T18:28:00.738Z,5.10
2019-03-17T18:30:28.744Z,6.10
2019-03-17T18:32:55.859Z,3.90
2019-03-17T18:35:23.674Z,3.98
2019-03-17T18:37:51.279Z,4.47
2019-03-17T18:40:21.493Z,4.28
2019-03-17T18:42:50.472Z,4.70
2019-03-17T18:45:23.038Z,6.72
2019-03-17T18:47:49.962Z,8.60
2019-03-17T18:50:20.643Z,5.22
2019-03-17T18:52:45.449Z,4.75
2019-03-17T18:55:13.803Z,4.15
2019-03-17T18:57:41.258Z,6.20
2019-03-17T19:00:19.394Z,7.33
2019-03-17T19:02:46.505Z,3.98
2019-03-17T19:05:15.920Z,6.92
2019-03-17T19:07:43.267Z,4.80
2019-03-17T19:10:15.470Z,8.50
2019-03-17T19:12:45.771Z,6.08
2019-03-17T19:15:20.276Z,6.97
2019-03-17T19:17:46.883Z,5.12
2019-03-17T19:20:16.080Z,8.63
2019-03-17T19:22:43.975Z,5.05
2019-03-17T19:25:19.208Z,7.12
2019-03-17T19:27:45.947Z,14.15
2019-03-17T19:30:17.602Z,6.12
2019-03-17T19:32:44.965Z,6.58
2019-03-17T19:35:12.098Z,7.08
2019-03-17T19:37:39.246Z,3.70
2019-03-17T19:40:12.144Z,4.95
2019-03-17T19:42:39.204Z,8.55
2019-03-17T19:45:07.142Z,7.92
2019-03-17T19:47:34.020Z,8.50
2019-03-17T19:50:01.342Z,7.30
2019-03-17T19:52:28.669Z,8.08
2019-03-17T19:54:55.525Z,7.00
2019-03-17T19:57:22.984Z,4.17
2019-03-17T19:59:50.333Z,8.75
2019-03-17T20:02:17.285Z,3.50
2019-03-17T20:04:44.838Z,5.62
2019-03-17T20:07:11.776Z,5.58
2019-03-17T20:09:38.832Z,5.17
2019-03-17T20:12:05.804Z,10.93
2019-03-17T20:14:32.709Z,10.20
2019-03-17T20:16:59.179Z,10.00
2019-03-17T20:19:26.222Z,9.50
2019-03-17T20:21:53.409Z,9.93
2019-03-17T20:24:20.127Z,6.37
2019-03-17T20:26:47.010Z,8.13
2019-03-17T20:29:15.172Z,8.10
2019-03-17T20:31:42.153Z,4.67
2019-03-17T20:34:08.772Z,2.47
2019-03-17T20:36:35.605Z,4.35
2019-03-17T20:39:04.250Z,4.87
2019-03-17T20:41:31.331Z,5.92
2019-03-17T20:43:57.879Z,6.42
2019-03-17T20:46:25.681Z,4.70
2019-03-17T20:48:53.024Z,5.95
2019-03-17T20:51:22.549Z,3.35
2019-03-17T20:53:49.158Z,4.55
2019-03-17T20:56:15.855Z,3.58
2019-03-17T20:58:42.555Z,5.20
2019-03-17T21:01:09.172Z,4.25
2019-03-17T21:03:36.104Z,8.08
2019-03-17T21:06:03.080Z,2.67
2019-03-17T21:08:29.841Z,6.95
2019-03-17T21:10:56.490Z,3.70
2019-03-17T21:13:24.078Z,6.03
2019-03-17T21:15:50.688Z,5.25
2019-03-17T21:18:20.391Z,5.03
2019-03-17T21:20:47.401Z,6.22
2019-03-17T21:23:14.314Z,3.60
2019-03-17T21:25:41.084Z,2.42
2019-03-17T21:28:08.849Z,6.58
2019-03-17T21:30:35.930Z,2.55
2019-03-17T21:33:02.801Z,2.72
2019-03-17T21:35:29.776Z,1.95
2019-03-17T21:37:56.782Z,1.90
2019-03-17T21:40:25.500Z,3.22
2019-03-17T21:42:52.599Z,2.90
2019-03-17T21:45:19.592Z,2.33
2019-03-17T21:47:46.625Z,3.85
2019-03-17T21:50:17.344Z,4.33
2019-03-17T21:52:44.461Z,2.17
2019-03-17T21:55:12.321Z,2.77
2019-03-17T21:57:39.036Z,6.22
2019-03-17T22:00:14.455Z,2.72
2019-03-17T22:02:41.635Z,2.47
2019-03-17T22:05:08.999Z,1.25
2019-03-17T22:07:48.182Z,3.10
2019-03-17T22:10:17.948Z,5.50
2019-03-17T22:12:45.117Z,4.03
2019-03-17T22:15:13.086Z,1.90
2019-03-17T22:17:40.686Z,1.98
2019-03-17T22:20:13.201Z,5.37
2019-03-17T22:22:42.045Z,3.22
2019-03-17T22:25:11.319Z,4.80
2019-03-17T22:27:38.131Z,5.20
2019-03-17T22:30:13.840Z,5.33
2019-03-17T22:32:40.517Z,2.75
2019-03-17T22:35:08.371Z,2.90
2019-03-17T22:37:34.851Z,6.83
2019-03-17T22:40:01.802Z,1.82
2019-03-17T22:42:28.510Z,3.67
2019-03-17T22:44:56.064Z,2.27
2019-03-17T22:47:22.668Z,4.17
2019-03-17T22:49:49.233Z,1.67
2019-03-17T22:52:15.797Z,2.05
2019-03-17T22:54:42.265Z,6.37
2019-03-17T22:57:08.708Z,1.55
2019-03-17T22:59:35.154Z,6.10
2019-03-17T23:02:01.926Z,3.87
2019-03-17T23:04:28.605Z,5.72
2019-03-17T23:06:56.984Z,3.42
2019-03-17T23:09:23.445Z,5.87
2019-03-17T23:11:49.918Z,5.70
2019-03-17T23:14:16.356Z,4.78
2019-03-17T23:16:42.931Z,2.98
2019-03-17T23:19:09.569Z,3.75
2019-03-17T23:21:36.108Z,3.30
2019-03-17T23:24:02.603Z,2.08
2019-03-17T23:26:29.889Z,5.42
2019-03-17T23:28:56.926Z,5.50
2019-03-17T23:31:23.474Z,5.10
2019-03-17T23:33:50.032Z,6.22
2019-03-17T23:36:17.193Z,3.65
2019-03-17T23:38:43.774Z,4.15
2019-03-17T23:41:11.163Z,1.75
2019-03-17T23:43:40.124Z,8.05
2019-03-17T23:46:07.146Z,2.85
2019-03-17T23:48:34.314Z,4.85
2019-03-17T23:51:01.279Z,3.40
2019-03-17T23:53:27.842Z,2.58
2019-03-17T23:55:54.392Z,3.85
2019-03-17T23:58:20.892Z,3.35
